Time;durP1;ratioP1;P1;durP2;ratioP2;P2;SDS_P1;SDS_P2;PMS_P1;PMS_P2;Temp;Humidity;BMP_temperature;BMP_pressure;BME280_temperature;BME280_humidity;BME280_pressure;Samples;Min_cycle;Max_cycle;Signal;HPM_P1;HPM_P2
2021/12/12 00:00:14;;;;;;;38.03;10.07;;;1.30;82.60;;;;;;4138255;28;20085;-64
2021/12/12 00:02:30;;;;;;;37.30;10.27;;;1.40;82.60;;;;;;4140065;28;20096;-65
2021/12/12 00:04:35;;;;;;;43.35;11.02;;;1.40;82.70;;;;;;4140377;28;20132;-62
2021/12/12 00:06:36;;;;;;;57.17;12.57;;;1.40;82.80;;;;;;4137720;28;20042;-63
2021/12/12 00:08:37;;;;;;;47.63;11.73;;;1.50;82.90;;;;;;4137073;28;20038;-64
2021/12/12 00:10:39;;;;;;;58.22;11.80;;;1.50;82.90;;;;;;4140107;28;20025;-64
2021/12/12 00:12:43;;;;;;;49.15;12.55;;;1.50;82.90;;;;;;4137696;28;20110;-64
2021/12/12 00:14:43;;;;;;;56.58;12.82;;;1.60;83.00;;;;;;4140091;28;20488;-64
2021/12/12 00:16:44;;;;;;;60.00;11.52;;;1.60;83.00;;;;;;4140488;28;20079;-65
2021/12/12 00:18:45;;;;;;;43.50;11.07;;;1.70;83.10;;;;;;4139213;28;20041;-65
2021/12/12 00:20:46;;;;;;;47.70;11.80;;;1.70;83.20;;;;;;4138430;28;20375;-65
2021/12/12 00:22:47;;;;;;;33.97;12.80;;;1.80;83.30;;;;;;4141060;28;20161;-65
2021/12/12 00:24:48;;;;;;;39.03;13.13;;;1.80;83.20;;;;;;4138213;28;20026;-64
2021/12/12 00:26:50;;;;;;;36.60;13.23;;;1.90;83.30;;;;;;4141620;28;20029;-65
2021/12/12 00:28:51;;;;;;;25.17;12.85;;;1.90;83.40;;;;;;4139480;28;20061;-65
2021/12/12 00:30:54;;;;;;;26.63;12.93;;;1.90;83.40;;;;;;4136026;28;20456;-65
2021/12/12 00:32:55;;;;;;;25.25;12.10;;;2.00;83.50;;;;;;4143623;28;20022;-65
2021/12/12 00:34:59;;;;;;;30.30;12.95;;;2.00;83.50;;;;;;4141870;28;20563;-65
2021/12/12 00:36:59;;;;;;;37.22;13.98;;;2.10;83.60;;;;;;4142297;28;20026;-65
2021/12/12 00:39:23;;;;;;;29.50;13.10;;;2.10;83.60;;;;;;4137956;28;20030;-64
2021/12/12 00:41:30;;;;;;;40.75;15.15;;;2.20;83.70;;;;;;4139114;28;20354;-65
2021/12/12 00:43:37;;;;;;;33.17;15.15;;;2.30;83.80;;;;;;4137204;28;20034;-65
2021/12/12 00:45:38;;;;;;;34.95;13.82;;;2.30;83.70;;;;;;4140518;28;20524;-64
2021/12/12 00:47:40;;;;;;;37.85;14.38;;;2.30;83.70;;;;;;4141322;28;20042;-64
2021/12/12 00:49:41;;;;;;;35.88;15.30;;;2.40;83.80;;;;;;4138864;28;20025;-63
2021/12/12 00:51:42;;;;;;;44.13;17.00;;;2.40;83.80;;;;;;4139516;28;20116;-62
2021/12/12 00:53:43;;;;;;;44.33;17.65;;;2.50;83.80;;;;;;4137516;28;20050;-63
2021/12/12 00:55:44;;;;;;;35.92;15.85;;;2.50;83.80;;;;;;4138683;28;20289;-63
2021/12/12 00:57:50;;;;;;;37.08;16.58;;;2.60;83.80;;;;;;4139518;28;20053;-64
2021/12/12 00:59:51;;;;;;;52.65;17.75;;;2.60;83.80;;;;;;4131363;28;20116;-65
2021/12/12 01:01:53;;;;;;;45.13;17.27;;;2.60;83.70;;;;;;4142015;28;20041;-66
2021/12/12 01:03:59;;;;;;;48.92;17.48;;;2.60;83.70;;;;;;4141005;28;20394;-63
2021/12/12 01:06:00;;;;;;;40.70;18.75;;;2.70;83.80;;;;;;4138054;28;20053;-64
2021/12/12 01:08:01;;;;;;;52.55;19.80;;;2.80;83.80;;;;;;4141769;28;20029;-64
2021/12/12 01:10:09;;;;;;;47.75;20.55;;;2.80;83.70;;;;;;4137484;28;20030;-64
2021/12/12 01:12:12;;;;;;;57.38;21.00;;;2.80;83.70;;;;;;4137539;28;20038;-64
2021/12/12 01:14:16;;;;;;;46.20;20.40;;;2.90;83.80;;;;;;4141665;28;20064;-64
2021/12/12 01:16:16;;;;;;;;;;;2.90;83.80;;;;;;4132111;28;20196;-64
2021/12/12 01:18:25;;;;;;;47.15;20.98;;;2.90;84.00;;;;;;4141211;28;19909;-65
2021/12/12 01:20:42;;;;;;;45.45;19.65;;;2.90;83.70;;;;;;4136747;28;20393;-65
2021/12/12 01:22:43;;;;;;;47.55;19.63;;;2.90;83.70;;;;;;4150788;28;20397;-65
2021/12/12 01:24:46;;;;;;;53.95;21.35;;;3.00;83.80;;;;;;4136897;28;20105;-65
2021/12/12 01:26:47;;;;;;;47.28;20.63;;;3.00;83.70;;;;;;4139200;28;20531;-66
2021/12/12 01:28:53;;;;;;;46.95;20.65;;;3.00;83.70;;;;;;4141761;28;20418;-65
2021/12/12 01:30:54;;;;;;;46.83;20.45;;;3.00;83.70;;;;;;4139575;28;20473;-65
2021/12/12 01:32:55;;;;;;;49.25;20.77;;;3.10;83.80;;;;;;4136385;28;20091;-65
2021/12/12 01:34:57;;;;;;;49.10;19.52;;;3.10;83.90;;;;;;4138524;28;20025;-65
2021/12/12 01:37:33;;;;;;;52.25;20.38;;;3.10;83.80;;;;;;4138822;28;20033;-66
2021/12/12 01:39:37;;;;;;;55.13;20.27;;;3.10;83.70;;;;;;4135233;28;20026;-66
2021/12/12 01:41:49;;;;;;;56.78;21.08;;;3.20;83.80;;;;;;4136914;28;20061;-67
2021/12/12 01:43:50;;;;;;;53.35;19.65;;;3.20;83.70;;;;;;4139790;28;20033;-66
2021/12/12 01:46:03;;;;;;;46.97;20.42;;;3.20;83.70;;;;;;4141764;28;20033;-66
2021/12/12 01:48:07;;;;;;;53.95;20.27;;;3.20;83.60;;;;;;4139712;28;20038;-66
2021/12/12 01:50:27;;;;;;;44.63;19.33;;;3.20;83.60;;;;;;4137381;28;20030;-65
2021/12/12 01:52:28;;;;;;;50.42;20.10;;;3.20;83.50;;;;;;4135488;28;20042;-65
2021/12/12 01:54:32;;;;;;;49.63;20.90;;;3.20;83.50;;;;;;4141761;28;20026;-64
2021/12/12 01:56:49;;;;;;;49.97;20.05;;;3.20;83.50;;;;;;4136597;28;20033;-65
2021/12/12 01:58:55;;;;;;;52.42;20.73;;;3.20;83.50;;;;;;4141258;28;20029;-65
2021/12/12 02:01:06;;;;;;;52.53;21.40;;;3.30;83.50;;;;;;4141618;28;20033;-65
2021/12/12 02:03:08;;;;;;;60.85;23.10;;;3.30;83.50;;;;;;4139867;28;20038;-65
2021/12/12 02:05:11;;;;;;;56.63;22.13;;;3.30;83.50;;;;;;4139989;28;20441;-65
2021/12/12 02:07:14;;;;;;;46.85;20.73;;;3.30;83.40;;;;;;4140209;28;20109;-65
2021/12/12 02:09:15;;;;;;;;;;;3.30;83.40;;;;;;4142325;28;20022;-65
2021/12/12 02:11:18;;;;;;;55.78;20.15;;;3.30;83.50;;;;;;4139190;28;20376;-65
2021/12/12 02:13:20;;;;;;;55.13;21.00;;;3.30;83.40;;;;;;4138318;28;20056;-65
2021/12/12 02:15:20;;;;;;;50.92;20.83;;;3.30;83.30;;;;;;4131704;28;20581;-66
2021/12/12 02:17:37;;;;;;;50.38;19.58;;;3.30;83.20;;;;;;4141079;28;20141;-66
2021/12/12 02:19:58;;;;;;;49.80;19.70;;;3.30;83.10;;;;;;4138996;28;20034;-65
2021/12/12 02:22:22;;;;;;;46.97;17.48;;;3.30;83.20;;;;;;4152948;28;20786;-66
2021/12/12 02:36:13;;;;;;;44.85;17.92;;;3.20;82.90;;;;;;4142549;28;20559;-66
2021/12/12 02:38:20;;;;;;;40.85;17.23;;;3.20;82.90;;;;;;4143094;28;20053;-67
2021/12/12 02:40:25;;;;;;;41.25;16.75;;;3.20;82.90;;;;;;4140029;28;20040;-67
2021/12/12 02:42:26;;;;;;;40.35;16.30;;;3.20;82.80;;;;;;4145738;28;20026;-67
2021/12/12 02:44:30;;;;;;;42.80;16.50;;;3.20;82.80;;;;;;4144270;28;20048;-67
2021/12/12 02:46:34;;;;;;;39.70;16.63;;;3.20;82.80;;;;;;4141553;28;20057;-66
2021/12/12 02:48:42;;;;;;;41.80;17.55;;;3.20;82.80;;;;;;4144325;28;20021;-66
2021/12/12 02:50:45;;;;;;;47.95;17.85;;;3.20;82.80;;;;;;4144082;28;20038;-66
2021/12/12 02:52:49;;;;;;;39.88;16.58;;;3.20;82.70;;;;;;4141586;28;20105;-67
2021/12/12 02:54:49;;;;;;;43.22;17.27;;;3.20;82.70;;;;;;4139574;28;20400;-67
2021/12/12 02:56:50;;;;;;;50.65;16.88;;;3.10;82.70;;;;;;4144476;28;20084;-67
2021/12/12 02:58:51;;;;;;;39.97;16.67;;;3.10;82.70;;;;;;4143211;28;20501;-67
2021/12/12 03:01:04;;;;;;;44.03;17.02;;;3.10;82.80;;;;;;4144399;28;20065;-67
2021/12/12 03:03:04;;;;;;;46.55;17.40;;;3.10;82.80;;;;;;4143808;28;20026;-67
2021/12/12 03:05:07;;;;;;;41.90;16.25;;;3.10;82.80;;;;;;4141301;28;20117;-66
2021/12/12 03:07:08;;;;;;;40.38;16.63;;;3.10;82.80;;;;;;4127993;28;20030;-66
2021/12/12 03:09:12;;;;;;;43.40;18.08;;;3.10;82.80;;;;;;4141001;28;20107;-66
2021/12/12 03:11:13;;;;;;;44.22;17.20;;;3.10;82.80;;;;;;4141028;28;20053;-66
2021/12/12 03:13:14;;;;;;;49.38;18.83;;;3.10;82.90;;;;;;4133769;28;20321;-66
2021/12/12 03:15:18;;;;;;;52.22;18.58;;;3.10;82.90;;;;;;4143058;28;20037;-66
2021/12/12 03:17:21;;;;;;;51.13;18.80;;;3.10;82.90;;;;;;4145204;28;20528;-66
2021/12/12 03:19:22;;;;;;;51.80;20.00;;;3.10;82.90;;;;;;4142480;28;20141;-66
2021/12/12 03:21:32;;;;;;;55.70;19.30;;;3.10;82.90;;;;;;4143972;28;20022;-66
2021/12/12 03:23:34;;;;;;;54.65;21.13;;;3.00;82.80;;;;;;4143905;28;20091;-66
2021/12/12 03:25:36;;;;;;;58.13;20.70;;;3.00;82.80;;;;;;4142261;28;20509;-66
2021/12/12 03:27:37;;;;;;;53.20;19.98;;;3.00;82.80;;;;;;4133955;28;20496;-66
2021/12/12 03:29:38;;;;;;;61.10;22.00;;;3.00;82.90;;;;;;4143249;28;20026;-66
2021/12/12 03:31:41;;;;;;;61.85;21.52;;;3.00;82.90;;;;;;4143389;28;20034;-66
2021/12/12 03:33:42;;;;;;;54.28;21.13;;;3.00;82.90;;;;;;4141744;28;20255;-66
2021/12/12 03:35:49;;;;;;;53.83;20.40;;;3.00;83.00;;;;;;4143411;28;20091;-66
2021/12/12 03:37:49;;;;;;;59.42;21.38;;;3.00;83.00;;;;;;4144057;28;20032;-66
2021/12/12 03:39:52;;;;;;;48.72;18.60;;;3.00;83.00;;;;;;4142283;28;20033;-66
2021/12/12 03:41:54;;;;;;;48.10;17.98;;;3.00;83.00;;;;;;4141866;28;20125;-66
2021/12/12 03:43:57;;;;;;;48.88;19.08;;;3.00;83.00;;;;;;4143974;28;20049;-66
2021/12/12 03:45:58;;;;;;;50.60;19.15;;;3.10;83.10;;;;;;4142737;28;20030;-66
2021/12/12 03:48:11;;;;;;;53.20;18.02;;;3.00;83.00;;;;;;4144154;28;20065;-66
2021/12/12 03:50:16;;;;;;;48.85;18.17;;;3.10;83.20;;;;;;4140870;28;20029;-66
2021/12/12 03:52:17;;;;;;;49.20;17.42;;;3.10;83.10;;;;;;4154676;28;20033;-66
2021/12/12 03:54:18;;;;;;;47.33;17.15;;;3.00;83.00;;;;;;4140897;28;20025;-66
2021/12/12 03:56:19;;;;;;;43.88;16.85;;;3.00;83.00;;;;;;4141691;28;20444;-66
2021/12/12 03:58:20;;;;;;;36.80;15.63;;;3.00;83.10;;;;;;4144424;28;20036;-66
2021/12/12 04:00:29;;;;;;;43.03;17.50;;;3.10;83.10;;;;;;4143396;28;20022;-66
2021/12/12 04:02:30;;;;;;;49.03;16.48;;;3.00;83.00;;;;;;4143189;28;20065;-66
2021/12/12 04:04:36;;;;;;;41.42;15.95;;;3.00;83.00;;;;;;4139518;28;20038;-66
2021/12/12 04:06:37;;;;;;;42.15;16.17;;;3.10;83.10;;;;;;4143979;28;20440;-66
2021/12/12 04:08:41;;;;;;;43.13;16.27;;;3.10;83.10;;;;;;4143944;28;20087;-66
2021/12/12 04:10:42;;;;;;;41.55;15.30;;;3.10;83.10;;;;;;4141168;28;20029;-66
2021/12/12 04:12:42;;;;;;;46.90;16.10;;;3.10;83.10;;;;;;4141365;28;20087;-66
2021/12/12 04:14:43;;;;;;;38.83;15.23;;;3.10;83.10;;;;;;4144087;28;20032;-66
2021/12/12 04:16:46;;;;;;;38.22;14.73;;;3.10;83.10;;;;;;4143451;28;20030;-66
2021/12/12 04:18:46;;;;;;;38.45;14.63;;;3.10;83.10;;;;;;4135727;28;20026;-66
2021/12/12 04:20:47;;;;;;;40.20;15.55;;;3.10;83.10;;;;;;4140878;28;20028;-66
2021/12/12 04:22:48;;;;;;;37.53;15.18;;;3.10;83.10;;;;;;4142275;28;20899;-66
2021/12/12 04:24:51;;;;;;;42.65;15.75;;;3.10;83.10;;;;;;4138971;28;20041;-66
2021/12/12 04:26:52;;;;;;;39.95;15.32;;;3.20;83.10;;;;;;4141014;28;20489;-66
2021/12/12 04:29:11;;;;;;;38.72;16.15;;;3.20;83.90;;;;;;4143315;28;20026;-66
2021/12/12 04:31:11;;;;;;;47.83;17.20;;;3.20;83.10;;;;;;4138608;28;20044;-66
2021/12/12 04:33:12;;;;;;;45.15;15.68;;;3.20;83.10;;;;;;4143733;28;20116;-66
2021/12/12 04:35:20;;;;;;;36.63;14.52;;;3.20;83.00;;;;;;4142716;28;20505;-66
2021/12/12 04:37:23;;;;;;;42.75;15.07;;;3.20;83.00;;;;;;4143339;28;20033;-65
2021/12/12 04:39:25;;;;;;;;;;;3.20;83.00;;;;;;4142770;28;20034;-65
2021/12/12 04:41:26;;;;;;;39.67;15.30;;;3.20;83.20;;;;;;4141958;28;19913;-65
2021/12/12 04:43:26;;;;;;;36.75;14.82;;;3.20;83.00;;;;;;4140238;28;20064;-65
2021/12/12 04:45:30;;;;;;;41.35;14.63;;;3.20;82.90;;;;;;4156608;28;20052;-65
2021/12/12 04:50:21;;;;;;;32.47;14.20;;;3.20;82.90;;;;;;4141974;28;20033;-65
2021/12/12 04:52:31;;;;;;;40.92;14.98;;;3.30;83.00;;;;;;4132728;28;20473;-65
2021/12/12 04:54:47;;;;;;;34.95;14.23;;;3.30;82.90;;;;;;4154997;28;20029;-65
2021/12/12 04:56:51;;;;;;;34.35;14.27;;;3.30;82.90;;;;;;4138895;28;20030;-65
2021/12/12 04:58:58;;;;;;;;;;;3.30;83.00;;;;;;4137443;28;20025;-65
2021/12/12 05:01:11;;;;;;;33.03;13.57;;;3.20;83.00;;;;;;4141610;28;19913;-66
2021/12/12 05:03:19;;;;;;;23.10;10.93;;;3.30;82.80;;;;;;4140613;28;20580;-66
2021/12/12 05:05:27;;;;;;;30.20;12.25;;;3.30;82.80;;;;;;4140944;28;20029;-65
2021/12/12 05:07:40;;;;;;;32.05;13.70;;;3.30;82.80;;;;;;4138657;28;20070;-65
2021/12/12 05:09:47;;;;;;;27.10;12.07;;;3.30;82.80;;;;;;4140511;28;20033;-65
2021/12/12 05:11:55;;;;;;;29.65;12.93;;;3.30;82.80;;;;;;4124593;28;20038;-65
2021/12/12 05:13:59;;;;;;;27.77;10.93;;;3.30;82.80;;;;;;4139448;28;20034;-65
2021/12/12 05:16:08;;;;;;;27.58;11.20;;;3.30;83.50;;;;;;4141552;28;20735;-65
2021/12/12 05:18:22;;;;;;;24.77;10.75;;;3.20;82.80;;;;;;4141646;28;20512;-65
2021/12/12 05:20:29;;;;;;;27.48;11.75;;;3.30;82.80;;;;;;4144600;28;20029;-65
2021/12/12 05:22:36;;;;;;;28.70;12.00;;;3.30;82.80;;;;;;4141630;28;20045;-65
2021/12/12 05:24:37;;;;;;;28.13;11.75;;;3.30;82.80;;;;;;4140311;28;20485;-65
2021/12/12 05:26:48;;;;;;;24.33;10.85;;;3.30;82.80;;;;;;4156207;28;20055;-65
2021/12/12 05:28:53;;;;;;;27.70;11.57;;;3.30;82.80;;;;;;4140666;28;20049;-65
2021/12/12 05:30:54;;;;;;;25.83;11.20;;;3.30;82.80;;;;;;4140797;28;20088;-65
2021/12/12 05:32:55;;;;;;;25.35;11.05;;;3.30;82.80;;;;;;4122050;28;20445;-64
2021/12/12 05:34:56;;;;;;;27.67;11.45;;;3.30;82.80;;;;;;4152060;28;20033;-65
2021/12/12 05:36:57;;;;;;;23.00;9.77;;;3.30;82.70;;;;;;4141252;28;20030;-65
2021/12/12 05:38:58;;;;;;;23.88;10.63;;;3.30;82.70;;;;;;4141999;28;20456;-65
2021/12/12 05:40:59;;;;;;;18.90;9.35;;;3.30;82.70;;;;;;4140249;28;20033;-65
2021/12/12 05:43:00;;;;;;;18.27;8.52;;;3.30;82.70;;;;;;4141541;28;20109;-65
2021/12/12 05:45:01;;;;;;;20.27;9.80;;;3.30;82.70;;;;;;4141086;28;20037;-65
2021/12/12 05:47:05;;;;;;;19.85;9.00;;;3.30;82.60;;;;;;4138128;28;20025;-65
2021/12/12 05:49:06;;;;;;;17.55;8.85;;;3.30;82.70;;;;;;4141173;28;20118;-65
2021/12/12 05:51:07;;;;;;;20.08;8.55;;;3.30;82.70;;;;;;4122235;28;20029;-64
2021/12/12 05:53:08;;;;;;;20.70;9.35;;;3.30;83.40;;;;;;4136760;28;20030;-65
2021/12/12 05:55:09;;;;;;;20.00;9.35;;;3.30;82.70;;;;;;4136847;28;20026;-65
2021/12/12 05:57:10;;;;;;;19.65;9.30;;;3.30;82.60;;;;;;4140166;28;20022;-65
2021/12/12 05:59:11;;;;;;;19.88;9.50;;;3.30;82.70;;;;;;4139231;28;20504;-65
2021/12/12 06:01:12;;;;;;;17.80;8.90;;;3.30;82.60;;;;;;4141047;28;21685;-65
2021/12/12 06:03:14;;;;;;;19.40;8.82;;;3.40;82.70;;;;;;4140996;28;20030;-65
2021/12/12 06:05:14;;;;;;;19.55;9.18;;;3.40;82.60;;;;;;4142131;28;20417;-66
2021/12/12 06:07:18;;;;;;;21.13;9.60;;;3.30;83.30;;;;;;4140477;28;20040;-65
2021/12/12 06:09:18;;;;;;;21.05;9.75;;;3.30;82.50;;;;;;4156696;28;20459;-65
2021/12/12 06:11:22;;;;;;;23.38;9.95;;;3.30;82.50;;;;;;4133043;28;20148;-65
2021/12/12 06:13:23;;;;;;;23.50;10.07;;;3.30;82.50;;;;;;4134587;28;20073;-65
2021/12/12 06:15:27;;;;;;;21.88;10.18;;;3.40;82.60;;;;;;4144980;28;20033;-66
2021/12/12 06:17:27;;;;;;;22.73;9.65;;;3.30;82.50;;;;;;4128234;28;20099;-65
2021/12/12 06:19:30;;;;;;;21.08;10.30;;;3.30;82.50;;;;;;4158780;28;20029;-67
2021/12/12 06:21:31;;;;;;;22.73;9.80;;;3.30;82.50;;;;;;4143272;28;20232;-67
2021/12/12 06:23:31;;;;;;;25.38;11.35;;;3.40;82.70;;;;;;4143691;28;20261;-66
2021/12/12 06:25:32;;;;;;;20.90;10.27;;;3.30;82.60;;;;;;4143215;28;20044;-66
2021/12/12 06:27:33;;;;;;;25.38;11.57;;;3.40;82.70;;;;;;4143216;28;20729;-65
2021/12/12 06:29:34;;;;;;;26.02;11.50;;;3.40;82.60;;;;;;4144466;28;20030;-65
2021/12/12 06:31:37;;;;;;;25.02;11.65;;;3.30;82.60;;;;;;4143675;28;20034;-66
2021/12/12 06:33:39;;;;;;;23.10;11.27;;;3.30;82.60;;;;;;4143998;28;20057;-65
2021/12/12 06:35:39;;;;;;;27.08;11.52;;;3.40;82.70;;;;;;4144379;28;20032;-67
2021/12/12 06:37:42;;;;;;;28.45;11.80;;;3.30;82.60;;;;;;4142128;28;20034;-66
2021/12/12 06:39:43;;;;;;;28.40;12.20;;;3.30;82.70;;;;;;4138836;28;20074;-66
2021/12/12 06:41:44;;;;;;;28.88;12.68;;;3.30;83.40;;;;;;4125009;28;20079;-66
2021/12/12 06:43:45;;;;;;;30.33;12.88;;;3.30;82.60;;;;;;4141883;28;20525;-66
2021/12/12 06:45:46;;;;;;;28.88;12.95;;;3.30;82.60;;;;;;4139076;28;20113;-65
2021/12/12 06:47:47;;;;;;;30.20;13.38;;;3.30;82.60;;;;;;4142210;28;20489;-65
2021/12/12 06:49:48;;;;;;;32.15;14.43;;;3.30;82.60;;;;;;4140533;28;20026;-65
2021/12/12 06:51:52;;;;;;;37.20;15.45;;;3.30;82.60;;;;;;4122486;28;20177;-65
2021/12/12 06:53:52;;;;;;;36.13;15.32;;;3.30;82.60;;;;;;4143607;28;20033;-66
2021/12/12 06:55:53;;;;;;;34.03;14.93;;;3.30;82.60;;;;;;4141057;28;20501;-66
2021/12/12 06:57:54;;;;;;;38.45;15.52;;;3.30;82.60;;;;;;4144287;28;20030;-66
2021/12/12 06:59:55;;;;;;;32.67;15.45;;;3.30;82.70;;;;;;4143898;28;20028;-66
2021/12/12 07:01:56;;;;;;;29.42;14.20;;;3.30;82.80;;;;;;4158194;28;20036;-65
2021/12/12 07:03:56;;;;;;;37.50;16.58;;;3.30;82.80;;;;;;4146012;28;20109;-66
2021/12/12 07:05:57;;;;;;;36.17;16.52;;;3.30;82.80;;;;;;4124437;28;20093;-66
2021/12/12 07:07:58;;;;;;;38.40;15.98;;;3.30;82.80;;;;;;4155291;28;20109;-66
2021/12/12 07:09:59;;;;;;;38.60;17.48;;;3.30;82.80;;;;;;4142563;28;20026;-66
2021/12/12 07:12:02;;;;;;;47.80;19.10;;;3.30;82.80;;;;;;4139128;28;20038;-67
2021/12/12 07:14:04;;;;;;;47.72;18.92;;;3.30;82.90;;;;;;4137768;28;20113;-67
2021/12/12 07:16:05;;;;;;;37.63;16.67;;;3.30;82.90;;;;;;4123751;28;20493;-66
2021/12/12 07:18:08;;;;;;;39.78;16.58;;;3.30;83.00;;;;;;4139606;28;20060;-67
2021/12/12 07:20:09;;;;;;;46.53;19.30;;;3.30;83.00;;;;;;4143124;28;20038;-67
2021/12/12 07:22:10;;;;;;;39.70;17.67;;;3.30;83.00;;;;;;4138518;28;20032;-67
2021/12/12 07:24:11;;;;;;;40.25;17.75;;;3.30;83.10;;;;;;4119960;28;20060;-67
2021/12/12 07:26:12;;;;;;;45.28;18.17;;;3.40;83.10;;;;;;4150936;28;20125;-67
2021/12/12 07:28:13;;;;;;;39.05;17.67;;;3.40;83.10;;;;;;4121297;28;20037;-67
2021/12/12 07:30:14;;;;;;;39.60;18.60;;;3.40;83.20;;;;;;4133134;28;20215;-67
2021/12/12 07:32:15;;;;;;;42.10;17.38;;;3.40;83.10;;;;;;4139724;28;20022;-66
2021/12/12 07:34:16;;;;;;;42.30;18.20;;;3.40;83.10;;;;;;4140347;28;20022;-66
2021/12/12 07:36:18;;;;;;;41.40;17.58;;;3.40;83.10;;;;;;4135457;28;20022;-66
2021/12/12 07:38:19;;;;;;;42.88;18.02;;;3.40;83.10;;;;;;4137808;28;20029;-66
2021/12/12 07:40:20;;;;;;;43.25;18.27;;;3.40;83.10;;;;;;4138154;28;20486;-66
2021/12/12 07:42:21;;;;;;;41.30;17.80;;;3.40;83.10;;;;;;4137559;28;20099;-66
2021/12/12 07:44:24;;;;;;;38.78;16.88;;;3.40;83.10;;;;;;4133758;28;20033;-66
2021/12/12 07:46:25;;;;;;;;;;;3.40;83.20;;;;;;4135846;28;20105;-66
2021/12/12 07:48:25;;;;;;;44.33;17.73;;;3.40;83.20;;;;;;4131863;28;19913;-66
2021/12/12 07:50:28;;;;;;;45.00;18.52;;;3.50;83.20;;;;;;4133877;28;20482;-66
2021/12/12 07:52:29;;;;;;;36.05;16.88;;;3.50;83.10;;;;;;4149299;28;20556;-67
2021/12/12 07:54:29;;;;;;;47.95;19.35;;;3.50;83.10;;;;;;4136987;28;20022;-66
2021/12/12 07:56:33;;;;;;;39.38;17.42;;;3.50;83.10;;;;;;4133356;28;20049;-66
2021/12/12 07:58:33;;;;;;;45.17;18.13;;;3.50;83.10;;;;;;4137224;28;20034;-67
2021/12/12 08:00:36;;;;;;;40.78;18.10;;;3.50;83.10;;;;;;4136238;28;20190;-67
2021/12/12 08:02:36;;;;;;;42.40;16.95;;;3.50;83.10;;;;;;4133865;28;20041;-67
2021/12/12 08:04:37;;;;;;;35.55;16.17;;;3.50;83.20;;;;;;4117663;28;20035;-67
2021/12/12 08:06:38;;;;;;;36.92;16.33;;;3.50;83.20;;;;;;4134419;28;20048;-67
2021/12/12 08:08:40;;;;;;;38.17;16.17;;;3.50;83.20;;;;;;4135363;28;20242;-67
2021/12/12 08:10:45;;;;;;;42.28;18.50;;;3.50;83.30;;;;;;4146649;28;20572;-67
2021/12/12 08:12:46;;;;;;;39.30;17.25;;;3.50;83.30;;;;;;4118337;28;20065;-67
2021/12/12 08:14:47;;;;;;;49.60;20.67;;;3.50;83.40;;;;;;4132316;28;20628;-67
2021/12/12 08:16:48;;;;;;;36.63;17.33;;;3.50;83.40;;;;;;4133907;28;20159;-67
2021/12/12 08:18:48;;;;;;;40.92;16.50;;;3.50;83.50;;;;;;4153842;28;20030;-67
2021/12/12 08:20:50;;;;;;;40.63;18.00;;;3.60;84.30;;;;;;4120582;28;20403;-67
2021/12/12 08:22:51;;;;;;;35.65;16.65;;;3.60;83.60;;;;;;4133044;28;20030;-66
2021/12/12 08:24:52;;;;;;;39.15;17.50;;;3.60;83.60;;;;;;4114375;28;20164;-67
2021/12/12 08:26:52;;;;;;;35.13;17.17;;;3.60;83.60;;;;;;4121865;28;20068;-67
2021/12/12 08:28:53;;;;;;;37.05;17.45;;;3.60;83.50;;;;;;4136886;28;20160;-67
2021/12/12 08:30:54;;;;;;;32.97;15.00;;;3.60;83.50;;;;;;4123132;28;20034;-67
2021/12/12 08:32:55;;;;;;;39.72;16.67;;;3.60;83.50;;;;;;4133138;28;20069;-67
2021/12/12 08:34:56;;;;;;;39.75;15.25;;;3.60;83.50;;;;;;4130871;28;20030;-67
2021/12/12 08:36:58;;;;;;;36.50;15.13;;;3.70;83.60;;;;;;4130565;28;20526;-67
2021/12/12 08:38:59;;;;;;;36.63;15.90;;;3.70;83.50;;;;;;4131366;28;20165;-67
2021/12/12 08:41:01;;;;;;;35.47;15.68;;;3.70;83.60;;;;;;4143511;28;20238;-67
2021/12/12 08:43:08;;;;;;;34.97;14.60;;;3.70;83.60;;;;;;4136115;28;20025;-66
2021/12/12 08:45:10;;;;;;;32.92;14.60;;;3.70;83.60;;;;;;4136074;28;20481;-66
2021/12/12 08:47:12;;;;;;;31.13;14.68;;;3.80;83.60;;;;;;4133879;28;20032;-67
2021/12/12 08:49:13;;;;;;;31.67;14.15;;;3.80;83.60;;;;;;4135096;28;20046;-66
2021/12/12 08:51:22;;;;;;;28.48;13.55;;;3.80;83.70;;;;;;4133136;28;20072;-66
2021/12/12 08:53:23;;;;;;;30.98;14.00;;;3.80;83.70;;;;;;4124446;28;20049;-67
2021/12/12 08:55:31;;;;;;;34.85;14.77;;;3.80;83.70;;;;;;4134385;28;20034;-66
2021/12/12 08:57:50;;;;;;;40.50;16.70;;;3.90;83.70;;;;;;4132483;28;20402;-67
2021/12/12 08:59:51;;;;;;;34.60;15.25;;;3.80;83.70;;;;;;4135159;28;20529;-67
2021/12/12 09:01:55;;;;;;;31.23;15.45;;;3.90;83.70;;;;;;4114722;28;20033;-67
2021/12/12 09:03:58;;;;;;;31.63;14.15;;;3.90;83.70;;;;;;4132838;28;20226;-66
2021/12/12 09:05:59;;;;;;;29.58;13.52;;;3.90;83.70;;;;;;4147963;28;20104;-66
2021/12/12 09:08:06;;;;;;;28.83;14.15;;;3.90;83.70;;;;;;4129597;28;20034;-66
2021/12/12 09:10:25;;;;;;;27.35;13.88;;;3.90;83.70;;;;;;4148248;28;21264;-66
2021/12/12 09:12:28;;;;;;;27.65;13.48;;;4.00;83.80;;;;;;4137410;28;20151;-66
2021/12/12 09:14:31;;;;;;;28.67;13.05;;;4.00;83.80;;;;;;4136517;28;20129;-66
2021/12/12 09:16:39;;;;;;;28.42;13.35;;;4.00;83.70;;;;;;4132517;28;20048;-66
2021/12/12 09:18:55;;;;;;;27.55;12.45;;;4.10;83.80;;;;;;4135815;28;20033;-66
2021/12/12 09:21:09;;;;;;;25.50;10.98;;;4.00;83.70;;;;;;4137674;28;20026;-66
2021/12/12 09:23:24;;;;;;;22.90;11.25;;;4.10;83.80;;;;;;4133860;28;20030;-66
2021/12/12 09:25:52;;;;;;;22.60;10.98;;;4.10;83.70;;;;;;4138645;28;20044;-66
2021/12/12 09:27:57;;;;;;;25.50;10.00;;;4.10;83.80;;;;;;4124135;28;20073;-66
2021/12/12 09:30:09;;;;;;;19.85;10.13;;;4.20;83.80;;;;;;4141304;28;20029;-66
2021/12/12 09:32:21;;;;;;;22.58;9.32;;;4.20;83.80;;;;;;4140479;28;20092;-66
2021/12/12 09:34:28;;;;;;;16.50;8.60;;;4.20;83.70;;;;;;4139034;28;20450;-66
2021/12/12 09:36:45;;;;;;;15.27;7.47;;;4.20;83.80;;;;;;4135904;28;20069;-66
2021/12/12 09:38:53;;;;;;;17.95;8.02;;;4.20;83.70;;;;;;4135131;28;20037;-66
2021/12/12 09:41:31;;;;;;;17.65;8.50;;;4.30;83.80;;;;;;4133836;28;20034;-65
2021/12/12 09:44:09;;;;;;;15.35;7.35;;;4.30;83.80;;;;;;4137449;28;20088;-65
2021/12/12 09:46:45;;;;;;;13.70;7.03;;;4.30;83.80;;;;;;4133593;28;20430;-66
2021/12/12 09:51:32;;;;;;;14.95;8.10;;;4.40;83.80;;;;;;4135271;28;20057;-66
2021/12/12 09:53:52;;;;;;;20.80;7.90;;;4.40;83.90;;;;;;4136284;28;20030;-65
2021/12/12 09:56:05;;;;;;;14.90;8.10;;;4.40;83.80;;;;;;4127751;28;20033;-66
2021/12/12 09:58:12;;;;;;;14.05;6.97;;;4.40;83.80;;;;;;4135934;28;20219;-66
2021/12/12 10:00:21;;;;;;;13.13;7.03;;;4.40;83.80;;;;;;4130853;28;20037;-67
2021/12/12 10:02:41;;;;;;;14.25;6.88;;;4.50;83.90;;;;;;4135537;28;20029;-66
2021/12/12 10:05:23;;;;;;;18.10;6.90;;;4.50;83.90;;;;;;4135674;28;20034;-66
2021/12/12 10:07:46;;;;;;;13.35;6.65;;;4.50;83.90;;;;;;4134644;28;21079;-66
2021/12/12 10:10:01;;;;;;;13.93;6.15;;;4.60;84.00;;;;;;4127579;28;20034;-66
2021/12/12 10:12:21;;;;;;;10.93;6.30;;;4.60;83.80;;;;;;4132966;28;21790;-66
2021/12/12 10:14:45;;;;;;;14.00;6.25;;;4.60;83.80;;;;;;4135129;28;20540;-66
2021/12/12 10:17:08;;;;;;;12.38;5.97;;;4.60;83.80;;;;;;4120225;28;20014;-66
2021/12/12 10:19:33;;;;;;;25.95;13.43;;;4.60;83.70;;;;;;4135254;28;20117;-66
2021/12/12 10:21:55;;;;;;;106.43;43.10;;;4.60;83.70;;;;;;4126625;28;20065;-66
2021/12/12 10:24:07;;;;;;;30.25;14.10;;;4.70;83.80;;;;;;4137526;28;20073;-66
2021/12/12 10:26:16;;;;;;;16.25;8.18;;;4.70;83.70;;;;;;4152310;28;20169;-66
2021/12/12 10:28:27;;;;;;;12.13;6.10;;;4.70;83.70;;;;;;4134434;28;20026;-66
2021/12/12 10:30:36;;;;;;;9.65;5.57;;;4.70;83.70;;;;;;4138941;28;20183;-67
2021/12/12 10:33:12;;;;;;;8.60;5.07;;;4.80;83.70;;;;;;4136578;28;20061;-66
2021/12/12 10:35:19;;;;;;;8.25;4.97;;;4.80;83.60;;;;;;4130993;28;20500;-66
2021/12/12 10:37:34;;;;;;;10.75;4.85;;;4.80;83.50;;;;;;4139999;28;20064;-66
2021/12/12 10:39:41;;;;;;;9.65;3.83;;;4.80;83.50;;;;;;4152070;28;20427;-66
2021/12/12 10:41:52;;;;;;;8.15;4.15;;;4.80;83.50;;;;;;4120430;28;20117;-65
2021/12/12 10:44:13;;;;;;;10.38;4.68;;;4.80;83.50;;;;;;4134166;28;20701;-66
2021/12/12 10:46:21;;;;;;;6.60;3.72;;;4.90;83.40;;;;;;4137469;28;20036;-66
2021/12/12 10:48:21;;;;;;;5.55;3.47;;;4.90;83.40;;;;;;4134277;28;20034;-66
2021/12/12 10:50:41;;;;;;;6.25;3.55;;;4.80;83.20;;;;;;4132284;28;20522;-66
2021/12/12 10:52:50;;;;;;;7.32;3.78;;;4.90;83.20;;;;;;4130245;28;20022;-66
2021/12/12 10:54:52;;;;;;;5.43;3.45;;;4.90;83.20;;;;;;4131492;28;20034;-66
2021/12/12 10:56:57;;;;;;;5.35;3.00;;;4.90;83.20;;;;;;4139987;28;20033;-66
2021/12/12 10:59:04;;;;;;;8.82;3.50;;;4.90;83.10;;;;;;4134181;28;20482;-66
2021/12/12 11:01:10;;;;;;;7.00;3.40;;;4.90;83.10;;;;;;4139175;28;20041;-65
2021/12/12 11:03:20;;;;;;;7.85;3.72;;;4.90;83.20;;;;;;4138517;28;20626;-66